createdAt,value
2023-04-01T00:40:41.373Z,9.70
2023-04-01T00:56:01.531Z,9.60
2023-04-01T00:58:32.462Z,9.60
2023-04-01T01:03:29.438Z,9.60
2023-04-01T01:11:46.894Z,9.60
2023-04-01T01:14:54.971Z,9.70
2023-04-01T01:32:51.718Z,9.40
2023-04-01T01:35:29.113Z,9.10
2023-04-01T01:38:08.757Z,9.60
2023-04-01T01:43:09.563Z,9.50
2023-04-01T01:45:42.049Z,9.50
2023-04-01T01:48:11.674Z,9.50
2023-04-01T01:53:11.735Z,9.50
2023-04-01T01:55:45.450Z,9.40
2023-04-01T01:58:43.989Z,9.30
2023-04-01T02:01:26.595Z,9.40
2023-04-01T02:03:57.081Z,9.00
2023-04-01T02:09:08.104Z,9.30
2023-04-01T02:11:58.443Z,9.30
2023-04-01T02:14:39.954Z,9.50
2023-04-01T02:17:11.443Z,9.30
2023-04-01T02:22:33.111Z,9.40
2023-04-01T02:25:08.110Z,9.40
2023-04-01T02:32:34.594Z,9.10
2023-04-01T02:40:09.074Z,9.00
2023-04-01T03:22:12.286Z,9.00
2023-04-01T03:59:09.835Z,8.80
2023-04-01T04:06:34.351Z,8.80
2023-04-01T04:11:33.766Z,9.10
2023-04-01T04:19:00.062Z,8.80
2023-04-01T04:31:27.284Z,8.90
2023-04-01T04:43:54.868Z,8.90
2023-04-01T04:46:24.116Z,8.80
2023-04-01T04:56:23.779Z,8.70
2023-04-01T04:59:01.365Z,8.80
2023-04-01T05:36:13.511Z,8.50
2023-04-01T06:04:21.374Z,8.80
2023-04-01T06:09:20.495Z,8.70
2023-04-01T06:12:29.927Z,8.80
2023-04-01T06:15:20.935Z,8.80
2023-04-01T06:20:48.758Z,8.80
2023-04-01T06:23:40.843Z,8.80
2023-04-01T06:27:06.158Z,9.00
2023-04-01T06:32:49.462Z,9.00
2023-04-01T06:35:35.474Z,8.80
2023-04-01T06:38:39.408Z,8.90
2023-04-01T06:44:01.188Z,8.90
2023-04-01T06:47:00.652Z,9.00
2023-04-01T06:50:17.263Z,8.90
2023-04-01T06:53:23.198Z,9.00
2023-04-01T07:01:32.020Z,8.90
2023-04-01T07:07:25.578Z,8.90
2023-04-01T07:10:00.827Z,9.10
2023-04-01T07:12:33.674Z,9.00
2023-04-01T07:15:37.818Z,9.10
2023-04-01T07:18:19.439Z,9.00
2023-04-01T07:20:47.838Z,9.00
2023-04-01T07:23:39.707Z,9.10
2023-04-01T07:26:24.995Z,9.00
2023-04-01T07:40:08.696Z,9.10
2023-04-01T07:43:17.584Z,9.10
2023-04-01T07:51:12.726Z,9.20
2023-04-01T07:54:09.436Z,9.10
2023-04-01T07:56:47.759Z,9.10
2023-04-01T07:59:28.942Z,9.10
2023-04-01T08:02:54.080Z,7.70
2023-04-01T08:08:19.983Z,9.30
2023-04-01T08:11:47.926Z,9.20
2023-04-01T08:15:12.052Z,9.20
2023-04-01T08:18:12.330Z,9.30
2023-04-01T08:20:59.160Z,9.40
2023-04-01T08:26:34.679Z,9.20
2023-04-01T08:29:13.009Z,9.30
2023-04-01T08:34:20.550Z,9.30
2023-04-01T08:36:55.328Z,9.20
2023-04-01T08:39:34.566Z,9.20
2023-04-01T08:42:24.521Z,9.30
2023-04-01T08:45:36.053Z,9.20
2023-04-01T08:48:39.782Z,9.20
2023-04-01T08:51:48.254Z,9.10
2023-04-01T08:57:40.863Z,9.10
2023-04-01T09:05:01.183Z,8.90
2023-04-01T09:07:58.559Z,8.90
2023-04-01T09:31:00.307Z,9.00
2023-04-01T09:33:55.417Z,8.90
2023-04-01T09:39:38.573Z,9.10
2023-04-01T09:45:00.856Z,9.10
2023-04-01T09:56:41.719Z,9.00
2023-04-01T10:19:44.634Z,9.30
2023-04-01T10:28:13.427Z,9.20
2023-04-01T10:42:59.993Z,9.00
2023-04-01T10:52:53.742Z,9.00
2023-04-01T10:56:29.114Z,9.00
2023-04-01T11:06:14.440Z,8.80
2023-04-01T11:09:36.223Z,9.50
2023-04-01T11:26:36.246Z,9.00
2023-04-01T11:41:38.270Z,9.20
2023-04-01T11:55:57.677Z,9.10
2023-04-01T12:07:23.406Z,9.10
2023-04-01T12:12:58.059Z,9.00
2023-04-01T12:22:34.452Z,9.20
2023-04-01T12:26:06.913Z,9.00
2023-04-01T12:29:10.705Z,8.90
2023-04-01T12:32:23.392Z,9.00
2023-04-01T12:45:45.780Z,8.90
2023-04-01T12:56:56.796Z,9.10
2023-04-01T13:06:21.148Z,8.90
2023-04-01T13:09:30.436Z,9.00
2023-04-01T13:12:35.676Z,8.90
2023-04-01T13:15:41.524Z,8.90
2023-04-01T13:18:45.958Z,9.10
2023-04-01T13:21:52.463Z,9.00
2023-04-01T13:24:46.925Z,9.10
2023-04-01T13:30:29.094Z,8.90
2023-04-01T13:33:36.808Z,9.00
2023-04-01T13:36:21.414Z,8.90
2023-04-01T13:39:31.049Z,8.90
2023-04-01T13:42:23.194Z,8.90
2023-04-01T13:45:01.077Z,8.80
2023-04-01T13:50:56.974Z,8.70
2023-04-01T13:57:09.200Z,8.70
2023-04-01T14:00:23.951Z,8.70
2023-04-01T14:03:19.083Z,8.70
2023-04-01T14:06:10.224Z,8.70
2023-04-01T14:14:42.336Z,8.90
2023-04-01T14:20:29.018Z,8.80
2023-04-01T14:29:09.018Z,8.60
2023-04-01T14:31:58.437Z,8.50
2023-04-01T14:37:32.325Z,8.60
2023-04-01T14:40:46.038Z,8.80
2023-04-01T14:43:50.384Z,8.60
2023-04-01T14:46:49.769Z,8.60
2023-04-01T14:49:39.464Z,8.60
2023-04-01T14:52:35.368Z,8.60
2023-04-01T15:00:17.974Z,8.50
2023-04-01T15:03:16.190Z,8.50
2023-04-01T15:05:57.592Z,8.70
2023-04-01T15:09:02.023Z,8.70
2023-04-01T15:12:15.440Z,8.70
2023-04-01T15:15:00.250Z,8.60
2023-04-01T15:18:13.726Z,8.60
2023-04-01T15:20:58.942Z,8.60
2023-04-01T15:24:07.234Z,8.30
2023-04-01T15:27:04.417Z,8.70
2023-04-01T15:30:05.966Z,8.80
2023-04-01T15:33:00.102Z,8.80
2023-04-01T15:38:25.766Z,8.70
2023-04-01T15:41:29.471Z,8.70
2023-04-01T15:46:49.898Z,8.60
2023-04-01T15:51:59.212Z,8.70
2023-04-01T15:54:53.849Z,8.80
2023-04-01T15:57:57.206Z,8.70
2023-04-01T16:00:34.476Z,8.70
2023-04-01T16:03:21.701Z,8.80
2023-04-01T16:06:24.714Z,8.80
2023-04-01T16:09:25.280Z,8.70
2023-04-01T16:12:14.104Z,8.90
2023-04-01T16:17:49.601Z,8.70
2023-04-01T16:20:21.796Z,8.80
2023-04-01T16:23:31.406Z,8.90
2023-04-01T16:26:20.427Z,8.60
2023-04-01T16:29:19.227Z,8.60
2023-04-01T16:32:23.908Z,8.60
2023-04-01T16:35:38.656Z,8.60
2023-04-01T16:38:31.981Z,8.80
2023-04-01T16:41:25.645Z,8.80
2023-04-01T16:43:58.918Z,8.80
2023-04-01T16:46:39.763Z,8.80
2023-04-01T16:49:12.637Z,8.80
2023-04-01T17:00:21.433Z,8.70
2023-04-01T17:03:05.051Z,8.80
2023-04-01T17:06:01.376Z,8.70
2023-04-01T17:08:55.033Z,8.70
2023-04-01T17:11:58.104Z,8.50
2023-04-01T17:14:32.116Z,8.50
2023-04-01T17:17:15.417Z,8.50
2023-04-01T17:20:14.107Z,8.50
2023-04-01T17:22:54.174Z,8.60
2023-04-01T17:28:19.516Z,8.40
2023-04-01T17:34:15.603Z,8.50
2023-04-01T17:37:30.572Z,8.50
2023-04-01T17:40:17.179Z,8.50
2023-04-01T17:42:57.413Z,8.40
2023-04-01T17:45:56.228Z,8.50
2023-04-01T17:48:38.220Z,8.50
2023-04-01T17:51:30.082Z,8.70
2023-04-01T17:54:38.847Z,8.50
2023-04-01T17:57:58.599Z,8.50
2023-04-01T18:00:56.584Z,8.60
2023-04-01T18:03:58.064Z,8.70
2023-04-01T18:09:40.771Z,8.60
2023-04-01T18:12:38.821Z,8.70
2023-04-01T18:21:01.378Z,8.50
2023-04-01T18:24:02.363Z,9.00
2023-04-01T18:26:36.986Z,8.60
2023-04-01T18:29:35.411Z,8.60
2023-04-01T18:32:31.598Z,8.50
2023-04-01T18:35:19.044Z,8.60
2023-04-01T18:40:38.198Z,8.50
2023-04-01T18:43:40.186Z,8.50
2023-04-01T18:46:42.073Z,8.50
2023-04-01T18:52:36.582Z,8.60
2023-04-01T18:57:51.479Z,8.60
2023-04-01T19:00:27.015Z,8.60
2023-04-01T19:03:09.031Z,8.60
2023-04-01T19:05:41.122Z,8.60
2023-04-01T19:08:31.554Z,8.50
2023-04-01T19:11:42.653Z,8.50
2023-04-01T19:16:52.393Z,8.60
2023-04-01T19:19:47.114Z,8.50
2023-04-01T19:22:42.205Z,8.50
2023-04-01T19:25:39.308Z,8.50
2023-04-01T19:28:37.362Z,8.50
2023-04-01T19:31:22.261Z,8.60
2023-04-01T19:34:03.825Z,8.40
2023-04-01T19:36:50.076Z,8.40
2023-04-01T19:42:00.843Z,7.90
2023-04-01T19:44:54.554Z,8.30
2023-04-01T19:50:38.010Z,8.40
2023-04-01T19:54:10.442Z,8.40
2023-04-01T19:57:11.668Z,8.40
2023-04-01T20:02:09.941Z,8.30
2023-04-01T20:04:49.283Z,8.20
2023-04-01T20:07:34.343Z,8.30
2023-04-01T20:10:15.648Z,8.50
2023-04-01T20:13:09.914Z,8.30
2023-04-01T20:15:41.241Z,8.30
2023-04-01T20:18:59.570Z,8.30
2023-04-01T20:21:47.291Z,8.30
2023-04-01T20:24:43.235Z,8.30
2023-04-01T20:27:14.454Z,8.50
2023-04-01T20:30:27.536Z,8.40
2023-04-01T20:35:46.238Z,8.40
2023-04-01T20:38:31.857Z,8.40
2023-04-01T20:41:17.346Z,8.30
2023-04-01T20:44:13.115Z,8.40
2023-04-01T20:47:16.026Z,8.40
2023-04-01T20:50:02.911Z,8.40
2023-04-01T20:52:56.319Z,8.30
2023-04-01T20:55:37.663Z,8.30
2023-04-01T20:58:21.367Z,8.30
2023-04-01T21:01:06.223Z,8.40
2023-04-01T21:04:03.475Z,8.50
2023-04-01T21:07:18.079Z,8.50
2023-04-01T21:10:13.381Z,8.40
2023-04-01T21:15:42.598Z,8.50
2023-04-01T21:18:56.226Z,8.40
2023-04-01T21:24:12.539Z,8.50
2023-04-01T21:26:54.299Z,8.40
2023-04-01T21:29:52.887Z,8.50
2023-04-01T21:32:36.810Z,8.50
2023-04-01T21:44:02.351Z,8.50
2023-04-01T21:49:41.726Z,8.40
2023-04-01T21:53:02.580Z,8.60
2023-04-01T21:56:06.018Z,8.40
2023-04-01T21:59:04.093Z,8.50
2023-04-01T22:02:21.021Z,8.50
2023-04-01T22:05:03.554Z,8.50
2023-04-01T22:07:41.678Z,8.40
2023-04-01T22:10:46.946Z,8.40
2023-04-01T22:13:26.049Z,8.50
2023-04-01T22:16:23.019Z,8.50
2023-04-01T22:19:16.592Z,8.40
2023-04-01T22:22:02.085Z,8.50
2023-04-01T22:24:50.679Z,8.50
2023-04-01T22:27:56.897Z,8.60
2023-04-01T22:33:10.433Z,8.50
2023-04-01T22:36:02.079Z,8.50
2023-04-01T22:39:01.327Z,8.60
2023-04-01T22:42:23.595Z,8.50
2023-04-01T22:45:13.942Z,8.50
2023-04-01T22:48:02.505Z,8.60
2023-04-01T22:51:24.910Z,8.50
2023-04-01T22:54:03.361Z,8.60
2023-04-01T22:56:38.493Z,8.50
2023-04-01T22:59:28.924Z,8.60
2023-04-01T23:02:16.573Z,8.40
2023-04-01T23:04:48.305Z,8.40
2023-04-01T23:07:50.236Z,8.60
2023-04-01T23:10:28.550Z,8.30
2023-04-01T23:13:02.596Z,8.40
2023-04-01T23:15:30.927Z,8.30
2023-04-01T23:18:26.441Z,8.50
2023-04-01T23:21:37.007Z,8.50
2023-04-01T23:24:27.648Z,8.80
2023-04-01T23:27:02.655Z,8.60
2023-04-01T23:32:03.278Z,8.40
2023-04-01T23:34:33.399Z,8.40
2023-04-01T23:37:12.837Z,8.50
2023-04-01T23:39:46.789Z,8.50
2023-04-01T23:42:30.576Z,8.30
2023-04-01T23:45:06.567Z,8.50
2023-04-01T23:47:38.975Z,8.40
2023-04-01T23:50:14.151Z,8.40
2023-04-01T23:52:47.143Z,8.50
2023-04-01T23:55:27.083Z,8.40
2023-04-01T23:58:23.796Z,8.40
